sim
Sign-in with your pilot id or email,
or register
Callsign
Passwort

Schedule Details

Flight Number: DLH1647 (3)
Departure: Gdansk Lech Walesa Airport (EPGD) at 05:10
Arrival: Munich Airport (EDDM) at 06:50
Route: Lufthansa Passenger Schedule. Enter filed route here before submitting Pirep.

Weather Information
Getting current METAR information for EPGD 201630Z 07004KT CAVOK 15/13 Q1021
Getting current METAR information for EDDM 201650Z 04003KT 350V050 CAVOK 20/11 Q1015 NOSIG

Schedule Frequency

Route Map